createdAt,value
2022-12-08T00:01:16.351Z,4.45
2022-12-08T00:03:44.417Z,4.47
2022-12-08T00:06:39.724Z,3.55
2022-12-08T00:09:25.766Z,4.36
2022-12-08T00:11:57.366Z,4.64
2022-12-08T00:14:27.345Z,4.20
2022-12-08T00:16:55.055Z,4.54
2022-12-08T00:19:23.775Z,4.39
2022-12-08T00:21:51.832Z,3.76
2022-12-08T00:24:21.757Z,4.36
2022-12-08T00:26:49.591Z,4.37
2022-12-08T00:29:17.791Z,4.11
2022-12-08T00:31:45.591Z,4.31
2022-12-08T00:34:13.695Z,4.66
2022-12-08T00:36:41.264Z,4.12
2022-12-08T00:39:08.885Z,4.67
2022-12-08T00:41:55.257Z,4.55
2022-12-08T00:44:23.052Z,4.48
2022-12-08T00:46:50.792Z,4.53
2022-12-08T00:49:18.799Z,4.56
2022-12-08T00:51:46.438Z,5.01
2022-12-08T00:54:14.154Z,4.34
2022-12-08T00:56:42.896Z,4.30
2022-12-08T00:59:10.871Z,4.04
2022-12-08T01:01:38.461Z,4.81
2022-12-08T01:04:06.559Z,3.44
2022-12-08T01:06:36.207Z,4.49
2022-12-08T01:09:05.968Z,4.67
2022-12-08T01:11:34.136Z,4.11
2022-12-08T01:14:03.473Z,4.95
2022-12-08T01:16:32.702Z,5.00
2022-12-08T01:19:00.970Z,4.72
2022-12-08T01:21:28.975Z,4.13
2022-12-08T01:23:57.962Z,4.38
2022-12-08T01:26:25.410Z,4.99
2022-12-08T01:28:53.404Z,5.34
2022-12-08T01:31:23.656Z,5.29
2022-12-08T01:33:51.768Z,5.28
2022-12-08T01:36:22.187Z,5.14
2022-12-08T01:38:49.664Z,5.28
2022-12-08T01:41:19.577Z,5.27
2022-12-08T01:43:57.197Z,5.21
2022-12-08T01:46:26.993Z,5.34
2022-12-08T01:48:57.831Z,5.13
2022-12-08T01:51:26.270Z,5.20
2022-12-08T01:53:53.996Z,5.20
2022-12-08T01:56:28.180Z,5.20
2022-12-08T01:58:56.909Z,5.21
2022-12-08T02:01:25.794Z,5.25
2022-12-08T02:03:58.772Z,4.97
2022-12-08T02:06:28.122Z,5.30
2022-12-08T02:08:56.063Z,5.29
2022-12-08T02:11:23.599Z,5.17
2022-12-08T02:13:53.115Z,4.55
2022-12-08T02:16:33.937Z,5.20
2022-12-08T02:19:36.330Z,5.12
2022-12-08T02:22:17.713Z,4.99
2022-12-08T02:24:52.025Z,4.77
2022-12-08T02:27:33.609Z,5.20
2022-12-08T02:30:14.042Z,5.08
2022-12-08T02:33:10.397Z,4.95
2022-12-08T02:35:44.824Z,4.97
2022-12-08T02:38:22.522Z,5.25
2022-12-08T02:41:00.853Z,5.18
2022-12-08T02:43:33.369Z,4.94
2022-12-08T02:46:04.365Z,5.34
2022-12-08T02:48:34.090Z,5.22
2022-12-08T02:51:03.086Z,5.47
2022-12-08T02:53:33.916Z,5.30
2022-12-08T02:56:09.606Z,5.13
2022-12-08T02:58:53.974Z,5.48
2022-12-08T03:01:36.192Z,5.42
2022-12-08T03:04:11.151Z,5.51
2022-12-08T03:06:47.501Z,5.34
2022-12-08T03:09:20.808Z,5.36
2022-12-08T03:11:54.260Z,5.57
2022-12-08T03:14:23.542Z,5.65
2022-12-08T03:16:56.262Z,5.39
2022-12-08T03:19:26.676Z,5.51
2022-12-08T03:22:03.280Z,5.08
2022-12-08T03:24:33.704Z,5.31
2022-12-08T03:27:05.055Z,5.43
2022-12-08T03:29:33.737Z,5.28
2022-12-08T03:32:08.729Z,5.31
2022-12-08T03:34:37.646Z,5.62
2022-12-08T03:37:07.033Z,5.44
2022-12-08T03:39:34.480Z,5.64
2022-12-08T03:42:01.864Z,5.52
2022-12-08T03:44:29.256Z,5.65
2022-12-08T03:46:56.646Z,5.77
2022-12-08T03:49:24.119Z,5.74
2022-12-08T03:51:52.077Z,5.19
2022-12-08T03:54:20.846Z,5.61
2022-12-08T03:56:48.271Z,5.46
2022-12-08T03:59:15.653Z,5.15
2022-12-08T04:01:43.090Z,5.43
2022-12-08T04:04:10.543Z,5.49
2022-12-08T04:06:38.430Z,5.35
2022-12-08T04:09:05.814Z,5.43
2022-12-08T04:11:34.602Z,5.74
2022-12-08T04:14:01.994Z,5.60
2022-12-08T04:16:29.532Z,5.38
2022-12-08T04:18:56.991Z,5.74
2022-12-08T04:21:24.375Z,5.73
2022-12-08T04:23:54.954Z,5.63
2022-12-08T04:26:26.670Z,5.39
2022-12-08T04:28:55.387Z,5.52
2022-12-08T04:31:22.860Z,5.41
2022-12-08T04:33:50.340Z,5.36
2022-12-08T04:36:17.787Z,4.62
2022-12-08T04:38:45.220Z,4.59
2022-12-08T04:41:12.851Z,4.59
2022-12-08T04:43:41.095Z,5.14
2022-12-08T04:46:10.300Z,4.96
2022-12-08T04:48:39.178Z,5.18
2022-12-08T04:51:07.341Z,5.05
2022-12-08T04:53:34.778Z,4.94
2022-12-08T04:56:02.194Z,5.14
2022-12-08T04:58:29.620Z,5.10
2022-12-08T05:00:57.059Z,5.25
2022-12-08T05:03:28.660Z,4.92
2022-12-08T05:05:56.466Z,5.56
2022-12-08T05:08:23.912Z,5.08
2022-12-08T05:10:51.361Z,5.53
2022-12-08T05:13:18.807Z,5.73
2022-12-08T05:15:46.288Z,5.55
2022-12-08T05:18:13.748Z,5.71
2022-12-08T05:20:42.491Z,5.72
2022-12-08T05:23:09.881Z,5.67
2022-12-08T05:25:37.281Z,5.51
2022-12-08T05:28:32.950Z,5.73
2022-12-08T05:30:52.867Z,5.27
2022-12-08T05:33:20.281Z,5.34
2022-12-08T05:35:49.014Z,5.47
2022-12-08T05:38:16.485Z,5.57
2022-12-08T05:40:44.302Z,5.43
2022-12-08T05:43:12.024Z,5.62
2022-12-08T05:45:39.635Z,5.81
2022-12-08T05:48:07.141Z,5.45
2022-12-08T05:50:34.518Z,5.79
2022-12-08T05:53:03.217Z,5.90
2022-12-08T05:55:30.636Z,5.71
2022-12-08T05:58:00.795Z,5.75
2022-12-08T06:00:30.786Z,5.68
2022-12-08T06:02:58.260Z,5.57
2022-12-08T06:05:25.739Z,5.82
2022-12-08T06:07:53.176Z,5.84
2022-12-08T06:10:21.919Z,5.86
2022-12-08T06:12:49.353Z,5.53
2022-12-08T06:15:16.841Z,5.87
2022-12-08T06:17:44.237Z,4.73
2022-12-08T06:20:12.023Z,5.29
2022-12-08T06:22:39.631Z,5.60
2022-12-08T06:25:10.115Z,5.79
2022-12-08T06:27:39.109Z,5.87
2022-12-08T06:30:08.044Z,5.94
2022-12-08T06:32:35.495Z,6.01
2022-12-08T06:35:02.972Z,5.85
2022-12-08T06:37:30.353Z,5.49
2022-12-08T06:39:57.748Z,5.72
2022-12-08T06:42:42.939Z,5.87
2022-12-08T06:45:12.835Z,5.85
2022-12-08T06:47:40.344Z,5.71
2022-12-08T06:50:09.710Z,5.90
2022-12-08T06:52:45.671Z,5.51
2022-12-08T06:55:42.732Z,5.79
2022-12-08T06:58:04.722Z,5.49
2022-12-08T07:00:33.435Z,5.87
2022-12-08T07:03:00.881Z,5.89
2022-12-08T07:05:28.258Z,5.89
2022-12-08T07:07:55.677Z,6.17
2022-12-08T07:10:23.095Z,6.13
2022-12-08T07:12:50.458Z,6.14
2022-12-08T07:15:17.984Z,5.92
2022-12-08T07:17:46.828Z,5.97
2022-12-08T07:20:14.413Z,6.17
2022-12-08T07:22:42.124Z,6.16
2022-12-08T07:25:10.049Z,6.05
2022-12-08T07:27:37.434Z,6.43
2022-12-08T07:30:05.901Z,6.12
2022-12-08T07:32:33.477Z,6.27
2022-12-08T07:35:02.231Z,6.26
2022-12-08T07:37:29.618Z,6.28
2022-12-08T07:39:57.041Z,6.32
2022-12-08T07:42:24.713Z,6.42
2022-12-08T07:44:52.207Z,6.15
2022-12-08T07:47:19.598Z,6.23
2022-12-08T07:49:46.993Z,5.92
2022-12-08T07:52:15.730Z,6.43
2022-12-08T07:54:43.117Z,6.20
2022-12-08T07:57:10.883Z,5.81
2022-12-08T07:59:38.578Z,6.36
2022-12-08T08:02:23.448Z,6.08
2022-12-08T08:04:52.818Z,6.47
2022-12-08T08:07:21.623Z,6.43
2022-12-08T08:09:49.085Z,6.33
2022-12-08T08:12:32.795Z,6.34
2022-12-08T08:15:00.948Z,6.09
2022-12-08T08:17:28.988Z,6.48
2022-12-08T08:19:56.898Z,6.58
2022-12-08T08:22:26.211Z,6.22
2022-12-08T08:24:53.764Z,6.50
2022-12-08T08:27:21.178Z,6.55
2022-12-08T08:29:48.618Z,6.44
2022-12-08T08:32:16.127Z,6.63
2022-12-08T08:34:43.634Z,5.95
2022-12-08T08:37:11.060Z,6.54
2022-12-08T08:39:39.805Z,6.34
2022-12-08T08:42:07.328Z,6.40
2022-12-08T08:44:34.762Z,6.45
2022-12-08T08:47:02.167Z,6.54
2022-12-08T08:49:29.594Z,6.40
2022-12-08T08:51:57.104Z,6.83
2022-12-08T08:54:24.490Z,6.90
2022-12-08T08:56:53.557Z,6.89
2022-12-08T08:59:20.986Z,6.59
2022-12-08T09:01:48.472Z,6.84
2022-12-08T09:04:15.973Z,7.08
2022-12-08T09:06:45.195Z,7.24
2022-12-08T09:09:13.078Z,6.80
2022-12-08T09:11:40.559Z,7.17
2022-12-08T09:14:11.810Z,7.04
2022-12-08T09:16:42.435Z,6.85
2022-12-08T09:19:10.436Z,6.96
2022-12-08T09:21:37.835Z,7.16
2022-12-08T09:24:05.550Z,7.00
2022-12-08T09:26:32.993Z,6.53
2022-12-08T09:29:00.454Z,6.96
2022-12-08T09:31:29.207Z,6.79
2022-12-08T09:33:56.660Z,7.07
2022-12-08T09:36:24.042Z,7.12
2022-12-08T09:38:53.651Z,7.05
2022-12-08T09:41:36.467Z,6.78
2022-12-08T09:44:22.449Z,7.27
2022-12-08T09:46:53.432Z,7.19
2022-12-08T09:49:31.491Z,7.35
2022-12-08T09:51:59.380Z,7.25
2022-12-08T09:54:33.381Z,6.97
2022-12-08T09:57:06.580Z,7.28
2022-12-08T09:59:35.886Z,6.92
2022-12-08T10:02:22.162Z,7.10
2022-12-08T10:04:49.698Z,7.12
2022-12-08T10:07:21.693Z,7.36
2022-12-08T10:09:59.431Z,6.93
2022-12-08T10:12:32.159Z,6.78
2022-12-08T10:15:06.648Z,7.05
2022-12-08T10:17:38.524Z,6.69
2022-12-08T10:20:13.818Z,6.97
2022-12-08T10:22:44.755Z,6.49
2022-12-08T10:25:19.036Z,6.70
2022-12-08T10:27:49.569Z,6.91
2022-12-08T10:30:19.550Z,6.96
2022-12-08T10:32:51.127Z,7.23
2022-12-08T10:35:21.155Z,7.33
2022-12-08T10:37:57.885Z,7.59
2022-12-08T10:40:36.959Z,7.50
2022-12-08T10:43:15.960Z,7.61
2022-12-08T10:45:44.044Z,7.00
2022-12-08T10:48:18.744Z,6.97
2022-12-08T10:50:48.389Z,6.75
2022-12-08T10:53:22.177Z,6.90
2022-12-08T10:55:51.763Z,7.08
2022-12-08T10:58:30.830Z,6.72
2022-12-08T11:01:19.344Z,7.46
2022-12-08T11:03:51.163Z,7.39
2022-12-08T11:06:21.582Z,7.09
2022-12-08T11:08:54.094Z,7.45
2022-12-08T11:11:29.064Z,7.24
2022-12-08T11:13:57.326Z,6.94
2022-12-08T11:16:28.682Z,7.11
2022-12-08T11:19:17.434Z,6.16
2022-12-08T11:21:45.461Z,6.42
2022-12-08T11:24:24.942Z,6.68
2022-12-08T11:27:02.939Z,6.62
2022-12-08T11:29:33.669Z,7.02
2022-12-08T11:32:06.685Z,7.22
2022-12-08T11:35:23.695Z,7.13
2022-12-08T11:38:03.054Z,6.86
2022-12-08T11:40:43.745Z,6.90
2022-12-08T11:43:17.400Z,7.07
2022-12-08T11:45:45.435Z,6.82
2022-12-08T11:48:17.676Z,6.81
2022-12-08T11:50:50.796Z,7.19
2022-12-08T11:53:27.340Z,6.43
2022-12-08T11:56:01.799Z,6.98
2022-12-08T11:58:35.816Z,6.89
2022-12-08T12:01:04.924Z,7.02
2022-12-08T12:03:38.914Z,7.20
2022-12-08T12:06:46.653Z,6.88
2022-12-08T12:09:18.457Z,6.67
2022-12-08T12:12:15.956Z,7.04
2022-12-08T12:15:17.226Z,7.18
2022-12-08T12:17:50.064Z,7.21
2022-12-08T12:20:24.930Z,7.19
2022-12-08T12:22:59.710Z,7.10
2022-12-08T12:25:28.871Z,7.12
2022-12-08T12:28:03.294Z,6.72
2022-12-08T12:30:50.921Z,6.98
2022-12-08T12:33:19.497Z,7.26
2022-12-08T12:35:48.861Z,7.55
2022-12-08T12:38:42.105Z,7.61
2022-12-08T12:41:12.060Z,7.06
2022-12-08T12:43:40.105Z,7.46
2022-12-08T12:46:42.011Z,6.67
2022-12-08T12:49:48.650Z,7.13
2022-12-08T12:52:53.193Z,7.46
2022-12-08T12:55:23.695Z,7.33
2022-12-08T12:57:53.991Z,7.47
2022-12-08T13:00:23.082Z,7.33
2022-12-08T13:02:52.078Z,7.10
2022-12-08T13:05:22.948Z,7.28
2022-12-08T13:07:53.532Z,7.52
2022-12-08T13:10:24.264Z,7.23
2022-12-08T13:13:17.190Z,7.29
2022-12-08T13:15:50.616Z,7.25
2022-12-08T13:18:21.731Z,6.68
2022-12-08T13:21:06.553Z,6.99
2022-12-08T13:23:46.364Z,7.18
2022-12-08T13:26:17.419Z,6.83
2022-12-08T13:29:24.505Z,6.96
2022-12-08T13:31:55.263Z,7.02
2022-12-08T13:34:35.371Z,7.04
2022-12-08T13:37:23.108Z,6.45
2022-12-08T13:39:54.590Z,7.23
2022-12-08T13:42:29.150Z,7.08
2022-12-08T13:54:45.506Z,7.20
2022-12-08T13:59:28.302Z,7.18
2022-12-08T14:01:58.109Z,7.04
2022-12-08T14:04:47.841Z,6.74
2022-12-08T14:07:15.876Z,7.01
2022-12-08T14:09:43.834Z,7.15
2022-12-08T14:12:19.777Z,7.04
2022-12-08T14:15:05.192Z,6.96
2022-12-08T14:17:34.127Z,6.84
2022-12-08T14:20:06.424Z,7.03
2022-12-08T14:22:36.233Z,7.05
2022-12-08T14:25:06.049Z,7.25
2022-12-08T14:27:35.907Z,7.11
2022-12-08T14:30:07.292Z,7.05
2022-12-08T14:32:38.742Z,7.05
2022-12-08T14:35:20.923Z,6.83
2022-12-08T14:37:50.975Z,6.82
2022-12-08T14:40:23.880Z,6.85
2022-12-08T14:42:53.543Z,6.93
2022-12-08T14:45:21.776Z,7.02
2022-12-08T14:47:49.571Z,6.85
2022-12-08T14:50:41.779Z,6.92
2022-12-08T14:53:15.429Z,6.91
2022-12-08T14:55:45.808Z,6.84
2022-12-08T14:58:19.743Z,6.87
2022-12-08T15:00:49.048Z,6.90
2022-12-08T15:03:17.738Z,7.01
2022-12-08T15:05:47.018Z,6.85
2022-12-08T15:08:14.487Z,6.79
2022-12-08T15:10:48.110Z,6.83
2022-12-08T15:13:23.754Z,6.82
2022-12-08T15:15:53.996Z,6.73
2022-12-08T15:18:24.800Z,6.82
2022-12-08T15:20:56.847Z,6.41
2022-12-08T15:23:29.611Z,6.66
2022-12-08T15:25:57.970Z,6.80
2022-12-08T15:28:30.019Z,6.73
2022-12-08T15:30:58.832Z,6.22
2022-12-08T15:33:27.159Z,6.43
2022-12-08T15:35:55.927Z,6.73
2022-12-08T15:38:25.761Z,6.72
2022-12-08T15:40:53.592Z,6.71
2022-12-08T15:43:22.173Z,6.81
2022-12-08T15:45:58.487Z,6.63
2022-12-08T15:48:29.220Z,6.61
2022-12-08T15:50:59.199Z,6.73
2022-12-08T15:53:26.998Z,6.76
2022-12-08T15:58:58.665Z,6.87
2022-12-08T16:01:27.355Z,6.74
2022-12-08T16:04:59.823Z,6.65
2022-12-08T16:09:37.048Z,6.62
2022-12-08T16:12:23.101Z,6.58
2022-12-08T16:17:39.474Z,6.46
2022-12-08T16:20:10.042Z,6.04
2022-12-08T16:23:03.734Z,6.30
2022-12-08T16:25:33.340Z,6.31
2022-12-08T16:28:45.201Z,6.24
2022-12-08T16:30:58.710Z,6.29
2022-12-08T16:33:26.208Z,6.26
2022-12-08T16:35:53.735Z,6.18
2022-12-08T16:38:22.503Z,6.23
2022-12-08T16:41:07.843Z,6.34
2022-12-08T16:43:35.625Z,5.79
2022-12-08T16:46:03.671Z,5.74
2022-12-08T16:48:31.392Z,5.88
2022-12-08T16:50:59.487Z,5.59
2022-12-08T16:53:28.225Z,6.00
2022-12-08T16:55:55.751Z,6.25
2022-12-08T16:58:23.206Z,6.07
2022-12-08T17:00:50.643Z,6.10
2022-12-08T17:03:18.510Z,5.83
2022-12-08T17:05:45.906Z,6.26
2022-12-08T17:08:13.998Z,6.14
2022-12-08T17:10:43.054Z,6.13
2022-12-08T17:13:10.795Z,6.16
2022-12-08T17:15:38.246Z,5.99
2022-12-08T17:18:06.048Z,5.88
2022-12-08T17:20:36.119Z,6.10
2022-12-08T17:23:03.488Z,6.00
2022-12-08T17:25:30.902Z,5.81
2022-12-08T17:27:59.702Z,5.82
2022-12-08T17:30:27.184Z,6.05
2022-12-08T17:32:54.624Z,5.89
2022-12-08T17:35:22.053Z,5.86
2022-12-08T17:37:49.564Z,5.89
2022-12-08T17:40:16.967Z,5.22
2022-12-08T17:42:44.794Z,5.67
2022-12-08T17:45:13.688Z,5.20
2022-12-08T17:47:41.157Z,5.66
2022-12-08T17:50:09.565Z,5.44
2022-12-08T17:52:36.961Z,5.77
2022-12-08T17:55:04.703Z,5.80
2022-12-08T17:57:32.157Z,5.85
2022-12-08T17:59:59.620Z,5.62
2022-12-08T18:02:28.948Z,5.70
2022-12-08T18:04:56.482Z,5.52
2022-12-08T18:07:23.908Z,4.89
2022-12-08T18:09:52.311Z,5.65
2022-12-08T18:12:23.631Z,5.62
2022-12-08T18:14:52.263Z,5.69
2022-12-08T18:17:20.613Z,5.74
2022-12-08T18:19:49.455Z,5.85
2022-12-08T18:22:16.889Z,5.66
2022-12-08T18:24:44.790Z,5.68
2022-12-08T18:27:12.219Z,5.69
2022-12-08T18:29:39.962Z,5.80
2022-12-08T18:32:08.503Z,5.61
2022-12-08T18:34:36.187Z,5.60
2022-12-08T18:37:05.210Z,5.61
2022-12-08T18:39:33.949Z,5.79
2022-12-08T18:42:22.596Z,5.72
2022-12-08T18:44:50.407Z,5.71
2022-12-08T18:47:18.269Z,5.13
2022-12-08T18:49:46.051Z,5.39
2022-12-08T18:52:17.826Z,5.63
2022-12-08T18:55:05.637Z,5.50
2022-12-08T18:57:34.154Z,5.56
2022-12-08T19:00:02.520Z,5.62
2022-12-08T19:02:30.180Z,5.33
2022-12-08T19:04:57.870Z,5.22
2022-12-08T19:07:26.607Z,5.07
2022-12-08T19:09:54.128Z,5.08
2022-12-08T19:12:21.562Z,5.13
2022-12-08T19:14:49.062Z,4.73
2022-12-08T19:17:16.483Z,4.75
2022-12-08T19:19:43.914Z,5.11
2022-12-08T19:22:12.325Z,4.82
2022-12-08T19:24:41.262Z,4.57
2022-12-08T19:27:08.698Z,4.29
2022-12-08T19:29:36.123Z,4.10
2022-12-08T19:32:05.092Z,4.45
2022-12-08T19:34:32.655Z,4.18
2022-12-08T19:37:00.085Z,4.52
2022-12-08T19:39:44.905Z,4.34
2022-12-08T19:42:33.997Z,4.65
2022-12-08T19:45:08.761Z,4.83
2022-12-08T19:47:36.246Z,4.78
2022-12-08T19:50:23.202Z,5.30
2022-12-08T19:52:50.808Z,5.28
2022-12-08T19:55:18.279Z,5.36
2022-12-08T19:57:47.303Z,5.29
2022-12-08T20:00:15.717Z,5.08
2022-12-08T20:02:43.316Z,5.15
2022-12-08T20:05:12.361Z,4.73
2022-12-08T20:07:40.490Z,5.00
2022-12-08T20:10:12.605Z,5.04
2022-12-08T20:12:40.114Z,5.26
2022-12-08T20:15:11.187Z,4.87
2022-12-08T20:17:39.178Z,4.88
2022-12-08T20:20:08.853Z,5.26
2022-12-08T20:22:39.055Z,5.22
2022-12-08T20:25:07.397Z,5.26
2022-12-08T20:27:34.926Z,5.20
2022-12-08T20:30:02.567Z,5.29
2022-12-08T20:32:31.450Z,4.92
2022-12-08T20:35:01.119Z,5.14
2022-12-08T20:37:28.520Z,5.15
2022-12-08T20:39:59.083Z,5.04
2022-12-08T20:42:26.735Z,4.92
2022-12-08T20:44:54.199Z,5.00
2022-12-08T20:47:21.893Z,5.15
2022-12-08T20:49:51.498Z,5.06
2022-12-08T20:52:19.068Z,5.03
2022-12-08T20:54:46.776Z,4.91
2022-12-08T20:57:14.496Z,4.80
2022-12-08T20:59:42.088Z,4.71
2022-12-08T21:02:11.336Z,4.65
2022-12-08T21:04:38.973Z,4.86
2022-12-08T21:07:11.547Z,4.89
2022-12-08T21:09:39.251Z,4.62
2022-12-08T21:12:07.286Z,4.50
2022-12-08T21:14:35.114Z,4.63
2022-12-08T21:17:02.780Z,4.81
2022-12-08T21:19:30.418Z,4.92
2022-12-08T21:21:58.085Z,5.05
2022-12-08T21:24:32.141Z,4.88
2022-12-08T21:27:02.557Z,4.56
2022-12-08T21:29:30.201Z,4.80
2022-12-08T21:31:58.786Z,4.91
2022-12-08T21:34:26.960Z,4.82
2022-12-08T21:36:54.506Z,4.93
2022-12-08T21:39:22.250Z,4.53
2022-12-08T21:42:08.634Z,4.36
2022-12-08T21:44:36.305Z,4.29
2022-12-08T21:47:04.035Z,4.22
2022-12-08T21:49:31.711Z,4.46
2022-12-08T21:51:59.510Z,4.39
2022-12-08T21:54:27.118Z,4.15
2022-12-08T21:56:56.180Z,4.13
2022-12-08T21:59:23.638Z,4.46
2022-12-08T22:01:51.521Z,4.52
2022-12-08T22:04:21.389Z,4.45
2022-12-08T22:06:49.725Z,4.84
2022-12-08T22:09:18.065Z,4.58
2022-12-08T22:11:45.940Z,4.60
2022-12-08T22:14:15.465Z,4.54
2022-12-08T22:16:43.762Z,4.09
2022-12-08T22:19:12.079Z,3.94
2022-12-08T22:21:39.871Z,3.81
2022-12-08T22:24:07.895Z,4.01
2022-12-08T22:26:36.768Z,3.92
2022-12-08T22:29:04.529Z,4.50
2022-12-08T22:31:33.584Z,3.70
2022-12-08T22:34:01.259Z,4.08
2022-12-08T22:39:04.736Z,3.93
2022-12-08T22:41:32.944Z,2.62
2022-12-08T22:44:00.564Z,3.46
2022-12-08T22:46:28.630Z,3.82
2022-12-08T22:48:57.551Z,4.05
2022-12-08T22:51:25.170Z,4.35
2022-12-08T22:53:53.077Z,4.25
2022-12-08T22:56:20.800Z,4.20
2022-12-08T22:58:48.398Z,4.09
2022-12-08T23:01:23.650Z,4.23
2022-12-08T23:03:51.180Z,4.13
2022-12-08T23:06:20.394Z,4.00
2022-12-08T23:08:48.347Z,4.05
2022-12-08T23:11:15.944Z,4.32
2022-12-08T23:13:43.787Z,4.12
2022-12-08T23:16:12.732Z,4.14
2022-12-08T23:18:43.040Z,4.04
2022-12-08T23:21:13.834Z,4.00
2022-12-08T23:23:43.214Z,4.02
2022-12-08T23:26:17.989Z,4.04
2022-12-08T23:28:45.730Z,3.97
2022-12-08T23:31:13.855Z,4.12
2022-12-08T23:33:41.736Z,4.16
2022-12-08T23:36:10.680Z,4.17
2022-12-08T23:38:38.625Z,4.22
2022-12-08T23:41:09.293Z,4.00
2022-12-08T23:43:36.939Z,3.88
2022-12-08T23:46:05.386Z,4.14
2022-12-08T23:48:34.701Z,4.11
2022-12-08T23:51:02.868Z,4.03
2022-12-08T23:53:30.691Z,3.70
2022-12-08T23:56:01.966Z,3.76
2022-12-08T23:58:32.899Z,3.69
